KAL415 RKSI-PGUM
Flight info
| Callsign | KAL415 |
|---|---|
| Flight time | 3h 44m |
| Altitude | 37000 |
| Route | OSPOT2E OSPOT Y782 TGU Y781 BESNA Y209 IKE A582 HKC Y14 TGE G339 CANAI/N0486F390 G339 SABGU DCT 21N139E DCT NATSS G339 UNZ |
| Aircraft | B77W/H-SDE1E2E3FGHIJ2J3J4J5M1RWXY/LB1D1 |
Departure
| Time | 2026-04-16 13:36 |
|---|---|
| Airport | Incheon International Airport (RKSI) |
Arrival
| Time | 2026-04-16 17:21 |
|---|---|
| Airport | Antonio B. Won Pat International Airport (PGUM) |
| Time | Latitude | Longitude | Altitude | Speed | Heading |
|---|---|---|---|---|---|
| 2026-04-16 13:08 | 37.46681 | 126.43631 | 37 ft | 0 kts | 325° |
| 2026-04-16 13:22 | 37.46674 | 126.43637 | 36 ft | 4 kts | 324° |
| 2026-04-16 13:23 | 37.46652 | 126.43656 | 34 ft | 4 kts | 327° |
| 2026-04-16 13:23 | 37.46630 | 126.43672 | 37 ft | 4 kts | 336° |
| 2026-04-16 13:23 | 37.46611 | 126.43679 | 36 ft | 2 kts | 14° |
| 2026-04-16 13:23 | 37.46601 | 126.43672 | 36 ft | 2 kts | 43° |
| 2026-04-16 13:24 | 37.46593 | 126.43662 | 36 ft | 2 kts | 52° |
| 2026-04-16 13:24 | 37.46587 | 126.43652 | 35 ft | 0 kts | 53° |
| 2026-04-16 13:26 | 37.46624 | 126.43716 | 37 ft | 18 kts | 54° |
| 2026-04-16 13:26 | 37.46626 | 126.43835 | 37 ft | 15 kts | 128° |
| 2026-04-16 13:26 | 37.46544 | 126.43920 | 37 ft | 15 kts | 144° |
| 2026-04-16 13:26 | 37.46492 | 126.43966 | 37 ft | 2 kts | 145° |
| 2026-04-16 13:27 | 37.46490 | 126.43967 | 37 ft | 0 kts | 145° |
| 2026-04-16 13:27 | 37.46488 | 126.43970 | 37 ft | 1 kts | 145° |
| 2026-04-16 13:27 | 37.46487 | 126.43971 | 37 ft | 0 kts | 145° |
| 2026-04-16 13:28 | 37.46430 | 126.44021 | 37 ft | 14 kts | 145° |
| 2026-04-16 13:28 | 37.46362 | 126.44105 | 37 ft | 14 kts | 110° |
| 2026-04-16 13:28 | 37.46392 | 126.44217 | 37 ft | 14 kts | 56° |
| 2026-04-16 13:28 | 37.46448 | 126.44318 | 37 ft | 14 kts | 54° |
| 2026-04-16 13:29 | 37.46504 | 126.44419 | 37 ft | 14 kts | 54° |
| 2026-04-16 13:29 | 37.46554 | 126.44522 | 37 ft | 14 kts | 60° |
| 2026-04-16 13:29 | 37.46632 | 126.44579 | 37 ft | 14 kts | 346° |
| 2026-04-16 13:29 | 37.46717 | 126.44516 | 37 ft | 14 kts | 326° |
| 2026-04-16 13:30 | 37.46798 | 126.44445 | 37 ft | 14 kts | 325° |
| 2026-04-16 13:30 | 37.46904 | 126.44350 | 37 ft | 23 kts | 324° |
| 2026-04-16 13:30 | 37.46972 | 126.44289 | 37 ft | 0 kts | 324° |
| 2026-04-16 13:30 | 37.46976 | 126.44285 | 37 ft | 1 kts | 324° |
| 2026-04-16 13:31 | 37.46983 | 126.44279 | 37 ft | 1 kts | 324° |
| 2026-04-16 13:31 | 37.47015 | 126.44259 | 37 ft | 9 kts | 340° |
| 2026-04-16 13:31 | 37.47055 | 126.44263 | 37 ft | 9 kts | 25° |
| 2026-04-16 13:31 | 37.47050 | 126.44365 | 37 ft | 14 kts | 134° |
| 2026-04-16 13:32 | 37.46969 | 126.44446 | 37 ft | 19 kts | 144° |
| 2026-04-16 13:32 | 37.46825 | 126.44575 | 37 ft | 26 kts | 144° |
| 2026-04-16 13:32 | 37.46683 | 126.44699 | 37 ft | 24 kts | 145° |
| 2026-04-16 13:32 | 37.46545 | 126.44821 | 37 ft | 24 kts | 144° |
| 2026-04-16 13:33 | 37.46407 | 126.44943 | 37 ft | 24 kts | 144° |
| 2026-04-16 13:33 | 37.46270 | 126.45066 | 37 ft | 24 kts | 144° |
| 2026-04-16 13:33 | 37.46132 | 126.45188 | 37 ft | 24 kts | 144° |
| 2026-04-16 13:33 | 37.45995 | 126.45312 | 37 ft | 24 kts | 144° |
| 2026-04-16 13:34 | 37.45858 | 126.45434 | 37 ft | 24 kts | 145° |
| 2026-04-16 13:34 | 37.45720 | 126.45556 | 37 ft | 24 kts | 145° |
| 2026-04-16 13:34 | 37.45585 | 126.45681 | 37 ft | 24 kts | 147° |
| 2026-04-16 13:34 | 37.45449 | 126.45797 | 37 ft | 23 kts | 144° |
| 2026-04-16 13:35 | 37.45363 | 126.45909 | 37 ft | 18 kts | 96° |
| 2026-04-16 13:35 | 37.45431 | 126.46030 | 37 ft | 18 kts | 15° |
| 2026-04-16 13:35 | 37.45547 | 126.45975 | 37 ft | 18 kts | 324° |
| 2026-04-16 13:35 | 37.45687 | 126.45851 | 37 ft | 40 kts | 324° |
| 2026-04-16 13:36 | 37.46130 | 126.45455 | 37 ft | 117 kts | 324° |
| 2026-04-16 13:36 | 37.46976 | 126.44695 | 67 ft | 175 kts | 323° |
| 2026-04-16 13:36 | 37.48026 | 126.43733 | 506 ft | 195 kts | 323° |
| 2026-04-16 13:36 | 37.49172 | 126.42690 | 1017 ft | 214 kts | 324° |
| 2026-04-16 13:37 | 37.50392 | 126.41623 | 1839 ft | 213 kts | 328° |
| 2026-04-16 13:37 | 37.51718 | 126.40596 | 2361 ft | 233 kts | 328° |
| 2026-04-16 13:37 | 37.53165 | 126.39452 | 2634 ft | 262 kts | 327° |
| 2026-04-16 13:37 | 37.54731 | 126.38177 | 3342 ft | 273 kts | 326° |
| 2026-04-16 13:38 | 37.56332 | 126.36850 | 4164 ft | 276 kts | 324° |
| 2026-04-16 13:38 | 37.57640 | 126.35096 | 4892 ft | 279 kts | 293° |
| 2026-04-16 13:38 | 37.58006 | 126.32740 | 5739 ft | 272 kts | 265° |
| 2026-04-16 13:38 | 37.57964 | 126.30338 | 6534 ft | 277 kts | 266° |
| 2026-04-16 13:39 | 37.57958 | 126.27901 | 7383 ft | 278 kts | 265° |
| 2026-04-16 13:39 | 37.57960 | 126.25452 | 8250 ft | 280 kts | 265° |
| 2026-04-16 13:39 | 37.57798 | 126.23034 | 8955 ft | 276 kts | 246° |
| 2026-04-16 13:39 | 37.56834 | 126.21024 | 9725 ft | 266 kts | 219° |
| 2026-04-16 13:40 | 37.55342 | 126.19710 | 10487 ft | 264 kts | 202° |
| 2026-04-16 13:40 | 37.53549 | 126.18879 | 10753 ft | 287 kts | 197° |
| 2026-04-16 13:40 | 37.51559 | 126.18071 | 10965 ft | 314 kts | 197° |
| 2026-04-16 13:40 | 37.49395 | 126.17186 | 11248 ft | 338 kts | 197° |
| 2026-04-16 13:41 | 37.47129 | 126.16237 | 11972 ft | 348 kts | 198° |
| 2026-04-16 13:41 | 37.44808 | 126.15318 | 12856 ft | 350 kts | 192° |
| 2026-04-16 13:41 | 37.42346 | 126.15229 | 13670 ft | 362 kts | 173° |
| 2026-04-16 13:41 | 37.39920 | 126.16190 | 14571 ft | 371 kts | 158° |
| 2026-04-16 13:42 | 37.37717 | 126.17945 | 15467 ft | 382 kts | 141° |
| 2026-04-16 13:42 | 37.35918 | 126.20457 | 16203 ft | 392 kts | 134° |
| 2026-04-16 13:42 | 37.34154 | 126.23125 | 16976 ft | 400 kts | 134° |
| 2026-04-16 13:42 | 37.32341 | 126.25792 | 17860 ft | 404 kts | 135° |
| 2026-04-16 13:43 | 37.30483 | 126.28475 | 18675 ft | 409 kts | 136° |
| 2026-04-16 13:43 | 37.28587 | 126.31182 | 19346 ft | 416 kts | 136° |
| 2026-04-16 13:43 | 37.26654 | 126.33933 | 19970 ft | 424 kts | 136° |
| 2026-04-16 13:43 | 37.24686 | 126.36736 | 20617 ft | 432 kts | 136° |
| 2026-04-16 13:44 | 37.22689 | 126.39583 | 21261 ft | 438 kts | 136° |
| 2026-04-16 13:44 | 37.20656 | 126.42479 | 21904 ft | 445 kts | 136° |
| 2026-04-16 13:44 | 37.18726 | 126.45550 | 22485 ft | 457 kts | 126° |
| 2026-04-16 13:44 | 37.17277 | 126.49106 | 23047 ft | 469 kts | 118° |
| 2026-04-16 13:45 | 37.15962 | 126.52876 | 23627 ft | 475 kts | 118° |
| 2026-04-16 13:45 | 37.14598 | 126.56675 | 24130 ft | 480 kts | 119° |
| 2026-04-16 13:45 | 37.13155 | 126.60466 | 24702 ft | 483 kts | 120° |
| 2026-04-16 13:45 | 37.11674 | 126.64251 | 25289 ft | 485 kts | 120° |
| 2026-04-16 13:46 | 37.10176 | 126.68057 | 25833 ft | 489 kts | 120° |
| 2026-04-16 13:46 | 37.08664 | 126.71907 | 26360 ft | 494 kts | 120° |
| 2026-04-16 13:46 | 37.07146 | 126.75778 | 26865 ft | 498 kts | 120° |
| 2026-04-16 13:46 | 37.05613 | 126.79689 | 27370 ft | 502 kts | 120° |
| 2026-04-16 13:47 | 37.04070 | 126.83623 | 27839 ft | 506 kts | 120° |
| 2026-04-16 13:47 | 37.02513 | 126.87592 | 28312 ft | 510 kts | 120° |
| 2026-04-16 13:47 | 37.00943 | 126.91588 | 28743 ft | 514 kts | 120° |
| 2026-04-16 13:47 | 36.99359 | 126.95614 | 29167 ft | 517 kts | 120° |
| 2026-04-16 13:48 | 36.97765 | 126.99661 | 29581 ft | 521 kts | 120° |
| 2026-04-16 13:48 | 36.96161 | 127.03728 | 29989 ft | 523 kts | 120° |
| 2026-04-16 13:48 | 36.94548 | 127.07813 | 30434 ft | 523 kts | 121° |
| 2026-04-16 13:48 | 36.92946 | 127.11866 | 30818 ft | 525 kts | 121° |
| 2026-04-16 13:49 | 36.91326 | 127.15958 | 31161 ft | 527 kts | 121° |
| 2026-04-16 13:49 | 36.89694 | 127.20072 | 31501 ft | 529 kts | 121° |
| 2026-04-16 13:49 | 36.88057 | 127.24196 | 31860 ft | 531 kts | 121° |
| 2026-04-16 13:49 | 36.86415 | 127.28329 | 32217 ft | 532 kts | 121° |
| 2026-04-16 13:50 | 36.84762 | 127.32477 | 32573 ft | 534 kts | 122° |
| 2026-04-16 13:50 | 36.83564 | 127.35149 | 32785 ft | 530 kts | 129° |
| 2026-04-16 13:50 | 36.81217 | 127.38611 | 33105 ft | 519 kts | 143° |
| 2026-04-16 13:50 | 36.78560 | 127.41635 | 33472 ft | 517 kts | 145° |
| 2026-04-16 13:51 | 36.75889 | 127.44649 | 33792 ft | 519 kts | 144° |
| 2026-04-16 13:51 | 36.73260 | 127.47765 | 34108 ft | 523 kts | 142° |
| 2026-04-16 13:51 | 36.70660 | 127.50952 | 34409 ft | 524 kts | 142° |
| 2026-04-16 13:51 | 36.68077 | 127.54137 | 34770 ft | 523 kts | 143° |
| 2026-04-16 13:52 | 36.65484 | 127.57324 | 35122 ft | 522 kts | 143° |
| 2026-04-16 13:52 | 36.62895 | 127.60493 | 35460 ft | 522 kts | 143° |
| 2026-04-16 13:52 | 36.60297 | 127.63663 | 35782 ft | 522 kts | 144° |
| 2026-04-16 13:52 | 36.57698 | 127.66830 | 36076 ft | 522 kts | 144° |
| 2026-04-16 13:53 | 36.55103 | 127.69987 | 36377 ft | 523 kts | 144° |
| 2026-04-16 13:53 | 36.52501 | 127.73152 | 36675 ft | 523 kts | 144° |
| 2026-04-16 13:53 | 36.49904 | 127.76310 | 36975 ft | 523 kts | 145° |
| 2026-04-16 13:54 | 36.44658 | 127.82671 | 37088 ft | 529 kts | 145° |
| 2026-04-16 13:54 | 36.39462 | 127.88987 | 37086 ft | 523 kts | 145° |
| 2026-04-16 13:55 | 36.34279 | 127.95280 | 37103 ft | 521 kts | 145° |
| 2026-04-16 13:55 | 36.29099 | 128.01548 | 37117 ft | 520 kts | 145° |
| 2026-04-16 13:56 | 36.23918 | 128.07798 | 37117 ft | 519 kts | 145° |
| 2026-04-16 13:56 | 36.18728 | 128.14038 | 37125 ft | 521 kts | 145° |
| 2026-04-16 13:57 | 36.13551 | 128.20254 | 37143 ft | 523 kts | 145° |
| 2026-04-16 13:57 | 36.08321 | 128.26526 | 37145 ft | 525 kts | 145° |
| 2026-04-16 13:58 | 36.00437 | 128.35957 | 37167 ft | 527 kts | 145° |
| 2026-04-16 13:58 | 35.95163 | 128.42253 | 37169 ft | 528 kts | 145° |
| 2026-04-16 13:59 | 35.89873 | 128.48556 | 37170 ft | 529 kts | 145° |
| 2026-04-16 13:59 | 35.84547 | 128.54777 | 37167 ft | 519 kts | 152° |
| 2026-04-16 14:00 | 35.81557 | 128.57018 | 37188 ft | 492 kts | 169° |
| 2026-04-16 14:00 | 35.78360 | 128.58259 | 37189 ft | 473 kts | 181° |
| 2026-04-16 14:00 | 35.75164 | 128.58701 | 37184 ft | 455 kts | 192° |
| 2026-04-16 14:00 | 35.72059 | 128.58399 | 37198 ft | 446 kts | 197° |
| 2026-04-16 14:01 | 35.65810 | 128.57703 | 37163 ft | 455 kts | 195° |
| 2026-04-16 14:01 | 35.59462 | 128.57129 | 37134 ft | 459 kts | 195° |
| 2026-04-16 14:02 | 35.53083 | 128.56573 | 37135 ft | 461 kts | 193° |
| 2026-04-16 14:02 | 35.49833 | 128.56718 | 37155 ft | 474 kts | 184° |
| 2026-04-16 14:02 | 35.46606 | 128.57448 | 37133 ft | 482 kts | 177° |
| 2026-04-16 14:03 | 35.43378 | 128.58691 | 37132 ft | 493 kts | 168° |
| 2026-04-16 14:03 | 35.40432 | 128.60349 | 37145 ft | 498 kts | 165° |
| 2026-04-16 14:03 | 35.34235 | 128.64164 | 37140 ft | 499 kts | 164° |
| 2026-04-16 14:04 | 35.28029 | 128.67938 | 37139 ft | 498 kts | 165° |
| 2026-04-16 14:04 | 35.21780 | 128.71636 | 37152 ft | 500 kts | 165° |
| 2026-04-16 14:05 | 35.15498 | 128.75330 | 37144 ft | 502 kts | 165° |
| 2026-04-16 14:05 | 35.09186 | 128.79042 | 37149 ft | 503 kts | 165° |
| 2026-04-16 14:06 | 35.02864 | 128.82749 | 37137 ft | 505 kts | 165° |
| 2026-04-16 14:06 | 34.96663 | 128.86970 | 37132 ft | 515 kts | 158° |
| 2026-04-16 14:07 | 34.90594 | 128.91639 | 37118 ft | 516 kts | 158° |
| 2026-04-16 14:07 | 34.84521 | 128.96293 | 37116 ft | 515 kts | 158° |
| 2026-04-16 14:08 | 34.78440 | 129.00889 | 37113 ft | 514 kts | 158° |
| 2026-04-16 14:08 | 34.72394 | 129.05437 | 37114 ft | 514 kts | 158° |
| 2026-04-16 14:09 | 34.66313 | 129.10010 | 37109 ft | 513 kts | 158° |
| 2026-04-16 14:09 | 34.60242 | 129.14566 | 37111 ft | 513 kts | 158° |
| 2026-04-16 14:10 | 34.54164 | 129.19101 | 37109 ft | 513 kts | 158° |
| 2026-04-16 14:10 | 34.48084 | 129.23626 | 37110 ft | 513 kts | 158° |
| 2026-04-16 14:11 | 34.42003 | 129.28149 | 37109 ft | 513 kts | 158° |
| 2026-04-16 14:11 | 34.35913 | 129.32672 | 37100 ft | 514 kts | 158° |
| 2026-04-16 14:12 | 34.29816 | 129.37193 | 37102 ft | 514 kts | 158° |
| 2026-04-16 14:12 | 34.23713 | 129.41711 | 37097 ft | 514 kts | 158° |
| 2026-04-16 14:13 | 34.17608 | 129.46224 | 37091 ft | 515 kts | 158° |
| 2026-04-16 14:13 | 34.11486 | 129.50741 | 37092 ft | 515 kts | 158° |
| 2026-04-16 14:14 | 34.05365 | 129.55250 | 37085 ft | 516 kts | 158° |
| 2026-04-16 14:14 | 33.99244 | 129.59785 | 37078 ft | 517 kts | 157° |
| 2026-04-16 14:15 | 33.93117 | 129.64306 | 37070 ft | 516 kts | 158° |
| 2026-04-16 14:15 | 33.86957 | 129.68763 | 37082 ft | 517 kts | 158° |
| 2026-04-16 14:16 | 33.80796 | 129.73250 | 37062 ft | 518 kts | 157° |
| 2026-04-16 14:16 | 33.74626 | 129.77528 | 37075 ft | 510 kts | 163° |
| 2026-04-16 14:17 | 33.68096 | 129.80514 | 37081 ft | 498 kts | 172° |
| 2026-04-16 14:17 | 33.61446 | 129.83082 | 37070 ft | 499 kts | 172° |
| 2026-04-16 14:18 | 33.54878 | 129.85665 | 37066 ft | 501 kts | 171° |
| 2026-04-16 14:18 | 33.48263 | 129.88304 | 37062 ft | 501 kts | 171° |
| 2026-04-16 14:19 | 33.41642 | 129.90950 | 37058 ft | 502 kts | 171° |
| 2026-04-16 14:19 | 33.35011 | 129.93591 | 37052 ft | 502 kts | 171° |
| 2026-04-16 14:20 | 33.28375 | 129.96228 | 37044 ft | 503 kts | 171° |
| 2026-04-16 14:20 | 33.21730 | 129.98864 | 37053 ft | 503 kts | 171° |
| 2026-04-16 14:21 | 33.15087 | 130.01484 | 37047 ft | 503 kts | 171° |
| 2026-04-16 14:21 | 33.08442 | 130.04098 | 37045 ft | 503 kts | 171° |
| 2026-04-16 14:22 | 33.01788 | 130.06713 | 37046 ft | 503 kts | 171° |
| 2026-04-16 14:22 | 32.95133 | 130.09326 | 37038 ft | 504 kts | 171° |
| 2026-04-16 14:23 | 32.88472 | 130.11936 | 37044 ft | 504 kts | 171° |
| 2026-04-16 14:23 | 32.81812 | 130.14544 | 37051 ft | 504 kts | 171° |
| 2026-04-16 14:24 | 32.75145 | 130.17149 | 37044 ft | 504 kts | 171° |
| 2026-04-16 14:24 | 32.68522 | 130.19734 | 37064 ft | 505 kts | 171° |
| 2026-04-16 14:25 | 32.61841 | 130.22338 | 37048 ft | 506 kts | 171° |
| 2026-04-16 14:25 | 32.55153 | 130.24948 | 37054 ft | 506 kts | 171° |
| 2026-04-16 14:26 | 32.48468 | 130.27594 | 37050 ft | 507 kts | 171° |
| 2026-04-16 14:26 | 32.41775 | 130.30246 | 37063 ft | 507 kts | 171° |
| 2026-04-16 14:27 | 32.35075 | 130.32890 | 37052 ft | 507 kts | 171° |
| 2026-04-16 14:27 | 32.28373 | 130.35529 | 37049 ft | 507 kts | 171° |
| 2026-04-16 14:28 | 32.21683 | 130.38159 | 37058 ft | 507 kts | 171° |
| 2026-04-16 14:28 | 32.14995 | 130.40786 | 37071 ft | 507 kts | 171° |
| 2026-04-16 14:29 | 32.08305 | 130.43400 | 37066 ft | 506 kts | 171° |
| 2026-04-16 14:29 | 32.01620 | 130.45987 | 37074 ft | 506 kts | 171° |
| 2026-04-16 14:30 | 31.94931 | 130.48569 | 37080 ft | 506 kts | 171° |
| 2026-04-16 14:30 | 31.88244 | 130.51153 | 37085 ft | 506 kts | 171° |
| 2026-04-16 14:31 | 31.81554 | 130.53734 | 37081 ft | 506 kts | 171° |
| 2026-04-16 14:31 | 31.74869 | 130.56310 | 37075 ft | 506 kts | 171° |
| 2026-04-16 14:32 | 31.68181 | 130.58881 | 37070 ft | 505 kts | 171° |
| 2026-04-16 14:32 | 31.61496 | 130.61408 | 37077 ft | 504 kts | 171° |
| 2026-04-16 14:33 | 31.54815 | 130.63930 | 37078 ft | 505 kts | 171° |
| 2026-04-16 14:33 | 31.48124 | 130.66445 | 37072 ft | 504 kts | 171° |
| 2026-04-16 14:34 | 31.41443 | 130.68949 | 37080 ft | 504 kts | 171° |
| 2026-04-16 14:34 | 31.34807 | 130.71434 | 37077 ft | 504 kts | 171° |
| 2026-04-16 14:35 | 31.28125 | 130.73939 | 37080 ft | 504 kts | 171° |
| 2026-04-16 14:35 | 31.21451 | 130.76445 | 37073 ft | 504 kts | 171° |
| 2026-04-16 14:36 | 31.14776 | 130.78949 | 37070 ft | 504 kts | 171° |
| 2026-04-16 14:36 | 31.08096 | 130.81440 | 37061 ft | 503 kts | 171° |
| 2026-04-16 14:37 | 31.01421 | 130.83893 | 37063 ft | 503 kts | 171° |
| 2026-04-16 14:37 | 30.94748 | 130.86342 | 37065 ft | 503 kts | 171° |
| 2026-04-16 14:38 | 30.89162 | 130.88401 | 37065 ft | 503 kts | 171° |
| 2026-04-16 14:38 | 30.82498 | 130.90902 | 37058 ft | 503 kts | 171° |
| 2026-04-16 14:39 | 30.75879 | 130.93375 | 37049 ft | 503 kts | 171° |
| 2026-04-16 14:39 | 30.69216 | 130.95851 | 37053 ft | 503 kts | 171° |
| 2026-04-16 14:40 | 30.62561 | 130.98398 | 37044 ft | 508 kts | 167° |
| 2026-04-16 14:40 | 30.56160 | 131.02069 | 37038 ft | 521 kts | 155° |
| 2026-04-16 14:41 | 30.50108 | 131.06759 | 37057 ft | 523 kts | 154° |
| 2026-04-16 14:41 | 30.44038 | 131.11375 | 37037 ft | 522 kts | 154° |
| 2026-04-16 14:42 | 30.37958 | 131.15963 | 37058 ft | 521 kts | 154° |
| 2026-04-16 14:42 | 30.31883 | 131.20556 | 37059 ft | 521 kts | 154° |
| 2026-04-16 14:43 | 30.25814 | 131.25142 | 37059 ft | 521 kts | 154° |
| 2026-04-16 14:43 | 30.19743 | 131.29718 | 37057 ft | 521 kts | 154° |
| 2026-04-16 14:44 | 30.13665 | 131.34248 | 37059 ft | 520 kts | 154° |
| 2026-04-16 14:44 | 30.07576 | 131.38767 | 37055 ft | 520 kts | 154° |
| 2026-04-16 14:45 | 30.01486 | 131.43291 | 37054 ft | 520 kts | 154° |
| 2026-04-16 14:45 | 29.95399 | 131.47815 | 37052 ft | 520 kts | 154° |
| 2026-04-16 14:46 | 29.89358 | 131.52310 | 37050 ft | 520 kts | 154° |
| 2026-04-16 14:46 | 29.83233 | 131.56861 | 37050 ft | 521 kts | 154° |
| 2026-04-16 14:47 | 29.77184 | 131.61347 | 37050 ft | 521 kts | 154° |
| 2026-04-16 14:47 | 29.71094 | 131.65859 | 37049 ft | 521 kts | 154° |
| 2026-04-16 14:48 | 29.64998 | 131.70368 | 37049 ft | 521 kts | 154° |
| 2026-04-16 14:48 | 29.58901 | 131.74882 | 37051 ft | 522 kts | 153° |
| 2026-04-16 14:49 | 29.52965 | 131.79737 | 37048 ft | 525 kts | 150° |
| 2026-04-16 14:49 | 29.47074 | 131.84697 | 37047 ft | 525 kts | 150° |
| 2026-04-16 14:50 | 29.41164 | 131.89616 | 37050 ft | 525 kts | 150° |
| 2026-04-16 14:50 | 29.35245 | 131.94509 | 37048 ft | 524 kts | 151° |
| 2026-04-16 14:51 | 29.29324 | 131.99387 | 37044 ft | 524 kts | 151° |
| 2026-04-16 14:51 | 29.23401 | 132.04259 | 37046 ft | 524 kts | 151° |
| 2026-04-16 14:53 | 28.99724 | 132.23684 | 37042 ft | 523 kts | 150° |
| 2026-04-16 14:54 | 28.93802 | 132.28525 | 37040 ft | 523 kts | 150° |
| 2026-04-16 14:54 | 28.87913 | 132.33332 | 37032 ft | 523 kts | 150° |
| 2026-04-16 14:55 | 28.81991 | 132.38159 | 37035 ft | 523 kts | 150° |
| 2026-04-16 14:55 | 28.76065 | 132.42983 | 37034 ft | 523 kts | 150° |
| 2026-04-16 14:56 | 28.70132 | 132.47805 | 37034 ft | 523 kts | 150° |
| 2026-04-16 14:56 | 28.64202 | 132.52618 | 37034 ft | 524 kts | 150° |
| 2026-04-16 14:57 | 28.58265 | 132.57431 | 37030 ft | 524 kts | 150° |
| 2026-04-16 14:57 | 28.52333 | 132.62233 | 37024 ft | 524 kts | 150° |
| 2026-04-16 14:58 | 28.43423 | 132.69433 | 37030 ft | 524 kts | 150° |
| 2026-04-16 14:59 | 28.37478 | 132.74229 | 37029 ft | 523 kts | 150° |
| 2026-04-16 14:59 | 28.31541 | 132.79009 | 37034 ft | 523 kts | 150° |
| 2026-04-16 15:00 | 28.25598 | 132.83786 | 37028 ft | 523 kts | 150° |
| 2026-04-16 15:00 | 28.19693 | 132.88528 | 37027 ft | 523 kts | 150° |
| 2026-04-16 15:01 | 28.13716 | 132.93323 | 37021 ft | 523 kts | 150° |
| 2026-04-16 15:01 | 28.07779 | 132.98079 | 37015 ft | 523 kts | 150° |
| 2026-04-16 15:02 | 28.01875 | 133.02802 | 37017 ft | 523 kts | 150° |
| 2026-04-16 15:02 | 27.95937 | 133.07546 | 37027 ft | 523 kts | 150° |
| 2026-04-16 15:03 | 27.89992 | 133.12290 | 37012 ft | 523 kts | 150° |
| 2026-04-16 15:03 | 27.84050 | 133.17024 | 37012 ft | 522 kts | 150° |
| 2026-04-16 15:04 | 27.78112 | 133.21749 | 37012 ft | 522 kts | 150° |
| 2026-04-16 15:04 | 27.72173 | 133.26470 | 37009 ft | 522 kts | 150° |
| 2026-04-16 15:05 | 27.66235 | 133.31186 | 37001 ft | 522 kts | 150° |
| 2026-04-16 15:05 | 27.60294 | 133.35898 | 37009 ft | 522 kts | 150° |
| 2026-04-16 15:06 | 27.54354 | 133.40601 | 37003 ft | 521 kts | 150° |
| 2026-04-16 15:06 | 27.48417 | 133.45297 | 37003 ft | 521 kts | 150° |
| 2026-04-16 15:07 | 27.42481 | 133.49986 | 36999 ft | 521 kts | 150° |
| 2026-04-16 15:07 | 27.36545 | 133.54668 | 36993 ft | 521 kts | 150° |
| 2026-04-16 15:08 | 27.30612 | 133.59341 | 36993 ft | 521 kts | 150° |
| 2026-04-16 15:08 | 27.24717 | 133.63978 | 37002 ft | 520 kts | 150° |
| 2026-04-16 15:09 | 27.18784 | 133.68640 | 36984 ft | 520 kts | 150° |
| 2026-04-16 15:09 | 27.12847 | 133.73298 | 36982 ft | 520 kts | 150° |
| 2026-04-16 15:10 | 27.06913 | 133.77948 | 36991 ft | 520 kts | 150° |
| 2026-04-16 15:10 | 27.00983 | 133.82589 | 36987 ft | 520 kts | 150° |
| 2026-04-16 15:11 | 26.95057 | 133.87220 | 36981 ft | 519 kts | 150° |
| 2026-04-16 15:11 | 26.89123 | 133.91852 | 36975 ft | 519 kts | 150° |
| 2026-04-16 15:12 | 26.83196 | 133.96473 | 36978 ft | 519 kts | 150° |
| 2026-04-16 15:12 | 26.77268 | 134.01090 | 36975 ft | 519 kts | 150° |
| 2026-04-16 15:13 | 26.71338 | 134.05700 | 36972 ft | 519 kts | 150° |
| 2026-04-16 15:13 | 26.65407 | 134.10300 | 36974 ft | 519 kts | 150° |
| 2026-04-16 15:14 | 26.59477 | 134.14895 | 36973 ft | 519 kts | 150° |
| 2026-04-16 15:14 | 26.53549 | 134.19485 | 36965 ft | 519 kts | 150° |
| 2026-04-16 15:15 | 26.47614 | 134.24075 | 36959 ft | 519 kts | 150° |
| 2026-04-16 15:15 | 26.41681 | 134.28658 | 36962 ft | 519 kts | 150° |
| 2026-04-16 15:16 | 26.35782 | 134.33209 | 36963 ft | 519 kts | 150° |
| 2026-04-16 15:16 | 26.29846 | 134.37782 | 36959 ft | 519 kts | 150° |
| 2026-04-16 15:17 | 26.23912 | 134.42348 | 36956 ft | 519 kts | 150° |
| 2026-04-16 15:17 | 26.17972 | 134.46912 | 36954 ft | 518 kts | 150° |
| 2026-04-16 15:18 | 26.12035 | 134.51468 | 36952 ft | 518 kts | 150° |
| 2026-04-16 15:18 | 26.06099 | 134.56019 | 36949 ft | 518 kts | 150° |
| 2026-04-16 15:19 | 26.00157 | 134.60568 | 36947 ft | 518 kts | 150° |
| 2026-04-16 15:19 | 25.94223 | 134.65106 | 36947 ft | 518 kts | 150° |
| 2026-04-16 15:20 | 25.88294 | 134.69633 | 36943 ft | 517 kts | 150° |
| 2026-04-16 15:20 | 25.82363 | 134.74157 | 36943 ft | 517 kts | 150° |
| 2026-04-16 15:21 | 25.76433 | 134.78675 | 36940 ft | 517 kts | 150° |
| 2026-04-16 15:21 | 25.70505 | 134.83185 | 36936 ft | 516 kts | 150° |
| 2026-04-16 15:22 | 25.64618 | 134.87659 | 36933 ft | 516 kts | 150° |
| 2026-04-16 15:22 | 25.58697 | 134.92154 | 36929 ft | 516 kts | 149° |
| 2026-04-16 15:23 | 25.52785 | 134.96638 | 36930 ft | 515 kts | 149° |
| 2026-04-16 15:23 | 25.47017 | 135.01366 | 36934 ft | 517 kts | 144° |
| 2026-04-16 15:24 | 25.41525 | 135.06512 | 36931 ft | 518 kts | 143° |
| 2026-04-16 15:24 | 25.36054 | 135.11685 | 36927 ft | 517 kts | 143° |
| 2026-04-16 15:25 | 25.31459 | 135.15993 | 36923 ft | 517 kts | 143° |
| 2026-04-16 15:25 | 25.25965 | 135.21107 | 36923 ft | 516 kts | 143° |
| 2026-04-16 15:26 | 25.20509 | 135.26169 | 36917 ft | 516 kts | 143° |
| 2026-04-16 15:26 | 25.15017 | 135.31260 | 36916 ft | 515 kts | 143° |
| 2026-04-16 15:27 | 25.09531 | 135.36343 | 36915 ft | 515 kts | 143° |
| 2026-04-16 15:27 | 25.04045 | 135.41419 | 36915 ft | 514 kts | 143° |
| 2026-04-16 15:28 | 24.98561 | 135.46487 | 36915 ft | 514 kts | 143° |
| 2026-04-16 15:28 | 24.93080 | 135.51547 | 36913 ft | 514 kts | 143° |
| 2026-04-16 15:29 | 24.87597 | 135.56602 | 36913 ft | 514 kts | 143° |
| 2026-04-16 15:29 | 24.82114 | 135.61652 | 36908 ft | 514 kts | 143° |
| 2026-04-16 15:30 | 24.76626 | 135.66699 | 36907 ft | 514 kts | 143° |
| 2026-04-16 15:30 | 24.71139 | 135.71740 | 36904 ft | 514 kts | 143° |
| 2026-04-16 15:31 | 24.65655 | 135.76773 | 36900 ft | 513 kts | 143° |
| 2026-04-16 15:31 | 24.60208 | 135.81765 | 36901 ft | 513 kts | 143° |
| 2026-04-16 15:32 | 24.54729 | 135.86780 | 36898 ft | 513 kts | 142° |
| 2026-04-16 15:32 | 24.49248 | 135.91792 | 36898 ft | 512 kts | 142° |
| 2026-04-16 15:33 | 24.43775 | 135.96791 | 36894 ft | 512 kts | 142° |
| 2026-04-16 15:33 | 24.38304 | 136.01782 | 36893 ft | 511 kts | 142° |
| 2026-04-16 15:34 | 24.32842 | 136.06759 | 36888 ft | 511 kts | 142° |
| 2026-04-16 15:34 | 24.27378 | 136.11732 | 36890 ft | 510 kts | 142° |
| 2026-04-16 15:35 | 24.21923 | 136.16691 | 36875 ft | 509 kts | 142° |
| 2026-04-16 15:35 | 24.16472 | 136.21640 | 36888 ft | 509 kts | 142° |
| 2026-04-16 15:36 | 24.11026 | 136.26580 | 36875 ft | 508 kts | 142° |
| 2026-04-16 15:36 | 24.05587 | 136.31508 | 36877 ft | 507 kts | 142° |
| 2026-04-16 15:37 | 24.00153 | 136.36425 | 36867 ft | 507 kts | 142° |
| 2026-04-16 15:37 | 23.94716 | 136.41339 | 36876 ft | 507 kts | 142° |
| 2026-04-16 15:38 | 23.89283 | 136.46244 | 36875 ft | 506 kts | 142° |
| 2026-04-16 15:38 | 23.83890 | 136.51108 | 36869 ft | 506 kts | 142° |
| 2026-04-16 15:39 | 23.78452 | 136.56007 | 36874 ft | 506 kts | 142° |
| 2026-04-16 15:39 | 23.73016 | 136.60898 | 36860 ft | 506 kts | 142° |
| 2026-04-16 15:40 | 23.67580 | 136.65784 | 36867 ft | 507 kts | 142° |
| 2026-04-16 15:40 | 23.62133 | 136.70675 | 36857 ft | 507 kts | 142° |
| 2026-04-16 15:41 | 23.56685 | 136.75561 | 36856 ft | 507 kts | 142° |
| 2026-04-16 15:41 | 23.51240 | 136.80439 | 36862 ft | 507 kts | 142° |
| 2026-04-16 15:42 | 23.45796 | 136.85310 | 36862 ft | 506 kts | 142° |
| 2026-04-16 15:42 | 23.40351 | 136.90178 | 36854 ft | 506 kts | 142° |
| 2026-04-16 15:43 | 23.34911 | 136.95035 | 36844 ft | 506 kts | 142° |
| 2026-04-16 15:43 | 23.29508 | 136.99854 | 36849 ft | 505 kts | 142° |
| 2026-04-16 15:44 | 23.24069 | 137.04700 | 36847 ft | 505 kts | 142° |
| 2026-04-16 15:44 | 23.18632 | 137.09539 | 36846 ft | 505 kts | 142° |
| 2026-04-16 15:45 | 23.13154 | 137.14409 | 36845 ft | 505 kts | 142° |
| 2026-04-16 15:45 | 23.07718 | 137.19236 | 36847 ft | 505 kts | 142° |
| 2026-04-16 15:46 | 23.02309 | 137.24034 | 36845 ft | 505 kts | 142° |
| 2026-04-16 15:46 | 22.96829 | 137.28891 | 36836 ft | 505 kts | 142° |
| 2026-04-16 15:47 | 22.91383 | 137.33711 | 36832 ft | 505 kts | 142° |
| 2026-04-16 15:47 | 22.85932 | 137.38531 | 36832 ft | 505 kts | 142° |
| 2026-04-16 15:48 | 22.80482 | 137.43345 | 36835 ft | 505 kts | 142° |
| 2026-04-16 15:48 | 22.75065 | 137.48124 | 36835 ft | 506 kts | 142° |
| 2026-04-16 15:49 | 22.69610 | 137.52933 | 36832 ft | 506 kts | 142° |
| 2026-04-16 15:49 | 22.64156 | 137.57736 | 36827 ft | 506 kts | 142° |
| 2026-04-16 15:50 | 22.58696 | 137.62539 | 36829 ft | 505 kts | 142° |
| 2026-04-16 15:50 | 22.53234 | 137.67337 | 36825 ft | 505 kts | 142° |
| 2026-04-16 15:51 | 22.47777 | 137.72127 | 36819 ft | 505 kts | 142° |
| 2026-04-16 15:51 | 22.42315 | 137.76916 | 36825 ft | 505 kts | 142° |
| 2026-04-16 15:52 | 22.36888 | 137.81670 | 36808 ft | 499 kts | 142° |
| 2026-04-16 15:52 | 22.31511 | 137.86376 | 36821 ft | 498 kts | 142° |
| 2026-04-16 15:53 | 22.26118 | 137.91089 | 36811 ft | 498 kts | 142° |
| 2026-04-16 15:53 | 22.20732 | 137.95791 | 36815 ft | 497 kts | 142° |
| 2026-04-16 15:54 | 22.15350 | 138.00485 | 36815 ft | 499 kts | 142° |
| 2026-04-16 15:54 | 22.09962 | 138.05180 | 36808 ft | 495 kts | 142° |
| 2026-04-16 15:55 | 22.04583 | 138.09863 | 36822 ft | 500 kts | 142° |
| 2026-04-16 15:55 | 21.99161 | 138.14578 | 36800 ft | 500 kts | 142° |
| 2026-04-16 15:56 | 21.93779 | 138.19255 | 36795 ft | 498 kts | 142° |
| 2026-04-16 15:56 | 21.88391 | 138.23930 | 36800 ft | 496 kts | 142° |
| 2026-04-16 15:57 | 21.83012 | 138.28595 | 36798 ft | 495 kts | 142° |
| 2026-04-16 15:57 | 21.77623 | 138.33262 | 36799 ft | 498 kts | 142° |
| 2026-04-16 15:58 | 21.72244 | 138.37917 | 36790 ft | 496 kts | 142° |
| 2026-04-16 15:58 | 21.66890 | 138.42545 | 36796 ft | 497 kts | 142° |
| 2026-04-16 15:59 | 21.58802 | 138.49529 | 36783 ft | 495 kts | 142° |
| 2026-04-16 15:59 | 21.53419 | 138.54170 | 36787 ft | 496 kts | 142° |
| 2026-04-16 16:00 | 21.48036 | 138.58809 | 36782 ft | 495 kts | 141° |
| 2026-04-16 16:00 | 21.42647 | 138.63447 | 36783 ft | 497 kts | 141° |
| 2026-04-16 16:01 | 21.37267 | 138.68073 | 36782 ft | 496 kts | 141° |
| 2026-04-16 16:01 | 21.31888 | 138.72693 | 36770 ft | 495 kts | 141° |
| 2026-04-16 16:02 | 21.26496 | 138.77320 | 36771 ft | 495 kts | 141° |
| 2026-04-16 16:02 | 21.21105 | 138.81943 | 36778 ft | 497 kts | 141° |
| 2026-04-16 16:03 | 21.15722 | 138.86554 | 36769 ft | 494 kts | 141° |
| 2026-04-16 16:03 | 21.10344 | 138.91157 | 36765 ft | 495 kts | 141° |
| 2026-04-16 16:04 | 21.04955 | 138.95765 | 36770 ft | 497 kts | 141° |
| 2026-04-16 16:04 | 20.99539 | 139.00336 | 36756 ft | 494 kts | 144° |
| 2026-04-16 16:05 | 20.93831 | 139.04361 | 36765 ft | 496 kts | 147° |
| 2026-04-16 16:05 | 20.88018 | 139.08302 | 36754 ft | 493 kts | 148° |
| 2026-04-16 16:06 | 20.82206 | 139.12259 | 36762 ft | 497 kts | 147° |
| 2026-04-16 16:06 | 20.76373 | 139.16259 | 36758 ft | 500 kts | 147° |
| 2026-04-16 16:07 | 20.70504 | 139.20294 | 36745 ft | 502 kts | 147° |
| 2026-04-16 16:07 | 20.64622 | 139.24335 | 36740 ft | 503 kts | 147° |
| 2026-04-16 16:08 | 20.58734 | 139.28375 | 36738 ft | 503 kts | 147° |
| 2026-04-16 16:08 | 20.52852 | 139.32406 | 36734 ft | 502 kts | 147° |
| 2026-04-16 16:09 | 20.46987 | 139.36421 | 36732 ft | 500 kts | 147° |
| 2026-04-16 16:09 | 20.41136 | 139.40423 | 36726 ft | 499 kts | 147° |
| 2026-04-16 16:10 | 20.36285 | 139.43738 | 36725 ft | 498 kts | 147° |
| 2026-04-16 16:10 | 20.30456 | 139.47718 | 36723 ft | 497 kts | 147° |
| 2026-04-16 16:11 | 20.24639 | 139.51686 | 36716 ft | 496 kts | 147° |
| 2026-04-16 16:11 | 20.18828 | 139.55647 | 36711 ft | 495 kts | 147° |
| 2026-04-16 16:12 | 20.13024 | 139.59600 | 36709 ft | 495 kts | 147° |
| 2026-04-16 16:12 | 20.07217 | 139.63550 | 36706 ft | 495 kts | 147° |
| 2026-04-16 16:13 | 20.01451 | 139.67470 | 36703 ft | 495 kts | 147° |
| 2026-04-16 16:13 | 19.95646 | 139.71412 | 36701 ft | 495 kts | 147° |
| 2026-04-16 16:14 | 19.89834 | 139.75356 | 36695 ft | 496 kts | 147° |
| 2026-04-16 16:14 | 19.84019 | 139.79298 | 36694 ft | 496 kts | 147° |
| 2026-04-16 16:15 | 19.78200 | 139.83240 | 36688 ft | 496 kts | 147° |
| 2026-04-16 16:15 | 19.72380 | 139.87179 | 36687 ft | 496 kts | 147° |
| 2026-04-16 16:16 | 19.66559 | 139.91115 | 36683 ft | 496 kts | 147° |
| 2026-04-16 16:16 | 19.60732 | 139.95052 | 36677 ft | 496 kts | 146° |
| 2026-04-16 16:17 | 19.54914 | 139.98981 | 36673 ft | 496 kts | 146° |
| 2026-04-16 16:17 | 19.49093 | 140.02905 | 36672 ft | 495 kts | 146° |
| 2026-04-16 16:18 | 19.43278 | 140.06823 | 36669 ft | 495 kts | 146° |
| 2026-04-16 16:18 | 19.37460 | 140.10740 | 36663 ft | 495 kts | 146° |
| 2026-04-16 16:19 | 19.31691 | 140.14621 | 36665 ft | 494 kts | 146° |
| 2026-04-16 16:19 | 19.25885 | 140.18524 | 36658 ft | 494 kts | 146° |
| 2026-04-16 16:20 | 19.20078 | 140.22423 | 36654 ft | 494 kts | 146° |
| 2026-04-16 16:20 | 19.14275 | 140.26317 | 36659 ft | 493 kts | 146° |
| 2026-04-16 16:21 | 19.08476 | 140.30205 | 36646 ft | 493 kts | 146° |
| 2026-04-16 16:21 | 19.02677 | 140.34090 | 36648 ft | 493 kts | 146° |
| 2026-04-16 16:22 | 18.96881 | 140.37968 | 36649 ft | 493 kts | 146° |
| 2026-04-16 16:22 | 18.91083 | 140.41843 | 36641 ft | 493 kts | 146° |
| 2026-04-16 16:23 | 18.85276 | 140.45723 | 36642 ft | 494 kts | 146° |
| 2026-04-16 16:23 | 18.79466 | 140.49603 | 36635 ft | 495 kts | 146° |
| 2026-04-16 16:24 | 18.73643 | 140.53488 | 36635 ft | 496 kts | 146° |
| 2026-04-16 16:24 | 18.67804 | 140.57380 | 36636 ft | 497 kts | 145° |
| 2026-04-16 16:25 | 18.61947 | 140.61281 | 36630 ft | 498 kts | 146° |
| 2026-04-16 16:25 | 18.56110 | 140.65165 | 36629 ft | 499 kts | 145° |
| 2026-04-16 16:26 | 18.50230 | 140.69076 | 36626 ft | 500 kts | 146° |
| 2026-04-16 16:26 | 18.44334 | 140.72991 | 36625 ft | 501 kts | 146° |
| 2026-04-16 16:27 | 18.38425 | 140.76913 | 36625 ft | 502 kts | 146° |
| 2026-04-16 16:27 | 18.32501 | 140.80842 | 36622 ft | 504 kts | 146° |
| 2026-04-16 16:28 | 18.26567 | 140.84774 | 36618 ft | 504 kts | 146° |
| 2026-04-16 16:28 | 18.20623 | 140.88710 | 36614 ft | 505 kts | 146° |
| 2026-04-16 16:29 | 18.14677 | 140.92643 | 36616 ft | 505 kts | 146° |
| 2026-04-16 16:29 | 18.08727 | 140.96576 | 36616 ft | 505 kts | 146° |
| 2026-04-16 16:30 | 18.02787 | 141.00500 | 36611 ft | 504 kts | 145° |
| 2026-04-16 16:30 | 17.96855 | 141.04415 | 36605 ft | 503 kts | 146° |
| 2026-04-16 16:31 | 17.90924 | 141.08324 | 36607 ft | 503 kts | 146° |
| 2026-04-16 16:31 | 17.85038 | 141.12203 | 36612 ft | 503 kts | 146° |
| 2026-04-16 16:32 | 17.79113 | 141.16105 | 36603 ft | 503 kts | 145° |
| 2026-04-16 16:32 | 17.73177 | 141.20011 | 36601 ft | 503 kts | 146° |
| 2026-04-16 16:33 | 17.67246 | 141.23910 | 36606 ft | 504 kts | 146° |
| 2026-04-16 16:33 | 17.61290 | 141.27825 | 36606 ft | 506 kts | 146° |
| 2026-04-16 16:34 | 17.55293 | 141.31761 | 36610 ft | 510 kts | 146° |
| 2026-04-16 16:34 | 17.49238 | 141.35731 | 36600 ft | 516 kts | 147° |
| 2026-04-16 16:35 | 17.43119 | 141.39740 | 36604 ft | 518 kts | 147° |
| 2026-04-16 16:35 | 17.37008 | 141.43740 | 36607 ft | 520 kts | 147° |
| 2026-04-16 16:36 | 17.30888 | 141.47744 | 36593 ft | 518 kts | 147° |
| 2026-04-16 16:36 | 17.24765 | 141.51746 | 36596 ft | 519 kts | 147° |
| 2026-04-16 16:37 | 17.18651 | 141.55740 | 36594 ft | 517 kts | 147° |
| 2026-04-16 16:37 | 17.12553 | 141.59721 | 36608 ft | 521 kts | 148° |
| 2026-04-16 16:38 | 17.06415 | 141.63723 | 36602 ft | 519 kts | 148° |
| 2026-04-16 16:38 | 17.00271 | 141.67727 | 36596 ft | 522 kts | 148° |
| 2026-04-16 16:39 | 16.94127 | 141.71728 | 36592 ft | 521 kts | 148° |
| 2026-04-16 16:39 | 16.87961 | 141.75741 | 36609 ft | 524 kts | 148° |
| 2026-04-16 16:40 | 16.81792 | 141.79751 | 36598 ft | 522 kts | 148° |
| 2026-04-16 16:40 | 16.75607 | 141.83770 | 36606 ft | 524 kts | 148° |
| 2026-04-16 16:41 | 16.69420 | 141.87786 | 36591 ft | 524 kts | 148° |
| 2026-04-16 16:41 | 16.63222 | 141.91808 | 36594 ft | 523 kts | 148° |
| 2026-04-16 16:42 | 16.57170 | 141.95963 | 36602 ft | 522 kts | 142° |
| 2026-04-16 16:42 | 16.51673 | 142.00883 | 36609 ft | 525 kts | 138° |
| 2026-04-16 16:43 | 16.46253 | 142.05910 | 36602 ft | 521 kts | 138° |
| 2026-04-16 16:43 | 16.40787 | 142.10920 | 36609 ft | 526 kts | 139° |
| 2026-04-16 16:44 | 16.35271 | 142.15926 | 36600 ft | 524 kts | 139° |
| 2026-04-16 16:44 | 16.29772 | 142.20907 | 36608 ft | 526 kts | 139° |
| 2026-04-16 16:45 | 16.24251 | 142.25907 | 36600 ft | 525 kts | 139° |
| 2026-04-16 16:45 | 16.18720 | 142.30916 | 36608 ft | 527 kts | 139° |
| 2026-04-16 16:46 | 16.13185 | 142.35924 | 36609 ft | 529 kts | 139° |
| 2026-04-16 16:46 | 16.07641 | 142.40939 | 36606 ft | 526 kts | 139° |
| 2026-04-16 16:47 | 16.02112 | 142.45927 | 36617 ft | 527 kts | 139° |
| 2026-04-16 16:47 | 15.96570 | 142.50920 | 36606 ft | 526 kts | 139° |
| 2026-04-16 16:48 | 15.91029 | 142.55910 | 36619 ft | 529 kts | 139° |
| 2026-04-16 16:48 | 15.85500 | 142.60888 | 36608 ft | 524 kts | 139° |
| 2026-04-16 16:49 | 15.79957 | 142.65874 | 36620 ft | 529 kts | 139° |
| 2026-04-16 16:49 | 15.74416 | 142.70854 | 36620 ft | 525 kts | 139° |
| 2026-04-16 16:50 | 15.68882 | 142.75825 | 36631 ft | 529 kts | 139° |
| 2026-04-16 16:50 | 15.63311 | 142.80825 | 36621 ft | 527 kts | 139° |
| 2026-04-16 16:51 | 15.57797 | 142.85770 | 36631 ft | 525 kts | 139° |
| 2026-04-16 16:51 | 15.52287 | 142.90709 | 36633 ft | 529 kts | 139° |
| 2026-04-16 16:52 | 15.46696 | 142.95715 | 36623 ft | 527 kts | 139° |
| 2026-04-16 16:52 | 15.41198 | 143.00637 | 36629 ft | 521 kts | 140° |
| 2026-04-16 16:53 | 15.35665 | 143.05584 | 36648 ft | 528 kts | 140° |
| 2026-04-16 16:53 | 15.30103 | 143.10553 | 36634 ft | 528 kts | 140° |
| 2026-04-16 16:54 | 15.24567 | 143.15497 | 36634 ft | 527 kts | 140° |
| 2026-04-16 16:54 | 15.19041 | 143.20428 | 36635 ft | 524 kts | 140° |
| 2026-04-16 16:55 | 15.13474 | 143.25392 | 36649 ft | 529 kts | 140° |
| 2026-04-16 16:55 | 15.07927 | 143.30335 | 36639 ft | 526 kts | 140° |
| 2026-04-16 16:56 | 15.02355 | 143.35296 | 36644 ft | 529 kts | 140° |
| 2026-04-16 16:56 | 14.96795 | 143.40243 | 36644 ft | 527 kts | 140° |
| 2026-04-16 16:57 | 14.88460 | 143.47653 | 36390 ft | 520 kts | 140° |
| 2026-04-16 16:57 | 14.85738 | 143.50072 | 35945 ft | 514 kts | 140° |
| 2026-04-16 16:58 | 14.83943 | 143.51667 | 35492 ft | 513 kts | 140° |
| 2026-04-16 16:58 | 14.80298 | 143.54901 | 34241 ft | 520 kts | 141° |
| 2026-04-16 16:58 | 14.78475 | 143.56520 | 33598 ft | 524 kts | 141° |
| 2026-04-16 16:58 | 14.74766 | 143.59812 | 32398 ft | 525 kts | 141° |
| 2026-04-16 16:59 | 14.72942 | 143.61430 | 32079 ft | 519 kts | 142° |
| 2026-04-16 16:59 | 14.70244 | 143.63852 | 31741 ft | 509 kts | 141° |
| 2026-04-16 16:59 | 14.67626 | 143.66265 | 31320 ft | 501 kts | 141° |
| 2026-04-16 16:59 | 14.65048 | 143.68673 | 30723 ft | 498 kts | 141° |
| 2026-04-16 17:00 | 14.62496 | 143.71065 | 30286 ft | 491 kts | 141° |
| 2026-04-16 17:00 | 14.59980 | 143.73421 | 29846 ft | 485 kts | 141° |
| 2026-04-16 17:00 | 14.57492 | 143.75744 | 29246 ft | 481 kts | 141° |
| 2026-04-16 17:00 | 14.55011 | 143.78052 | 28597 ft | 479 kts | 141° |
| 2026-04-16 17:01 | 14.52545 | 143.80341 | 27992 ft | 475 kts | 141° |
| 2026-04-16 17:01 | 14.50095 | 143.82612 | 27434 ft | 472 kts | 142° |
| 2026-04-16 17:01 | 14.47661 | 143.84866 | 26876 ft | 468 kts | 142° |
| 2026-04-16 17:01 | 14.45244 | 143.87103 | 26319 ft | 465 kts | 142° |
| 2026-04-16 17:02 | 14.42842 | 143.89327 | 25797 ft | 462 kts | 142° |
| 2026-04-16 17:02 | 14.40490 | 143.91505 | 25295 ft | 459 kts | 142° |
| 2026-04-16 17:02 | 14.38120 | 143.93698 | 24786 ft | 456 kts | 142° |
| 2026-04-16 17:02 | 14.35769 | 143.95873 | 24310 ft | 453 kts | 142° |
| 2026-04-16 17:03 | 14.33427 | 143.98041 | 23824 ft | 450 kts | 142° |
| 2026-04-16 17:03 | 14.31104 | 144.00189 | 23354 ft | 448 kts | 142° |
| 2026-04-16 17:03 | 14.28788 | 144.02331 | 22811 ft | 445 kts | 142° |
| 2026-04-16 17:03 | 14.26492 | 144.04453 | 22293 ft | 442 kts | 142° |
| 2026-04-16 17:04 | 14.24210 | 144.06562 | 21782 ft | 439 kts | 141° |
| 2026-04-16 17:04 | 14.21947 | 144.08653 | 21289 ft | 435 kts | 142° |
| 2026-04-16 17:04 | 14.19701 | 144.10727 | 20799 ft | 432 kts | 142° |
| 2026-04-16 17:04 | 14.17464 | 144.12792 | 20323 ft | 430 kts | 142° |
| 2026-04-16 17:05 | 14.15243 | 144.14842 | 19844 ft | 427 kts | 142° |
| 2026-04-16 17:05 | 14.13036 | 144.16878 | 19394 ft | 424 kts | 141° |
| 2026-04-16 17:05 | 14.10846 | 144.18897 | 18939 ft | 422 kts | 141° |
| 2026-04-16 17:05 | 14.08663 | 144.20911 | 18491 ft | 420 kts | 141° |
| 2026-04-16 17:06 | 14.06493 | 144.22912 | 18059 ft | 417 kts | 141° |
| 2026-04-16 17:06 | 14.04338 | 144.24898 | 17610 ft | 414 kts | 141° |
| 2026-04-16 17:06 | 14.02202 | 144.26867 | 17172 ft | 411 kts | 141° |
| 2026-04-16 17:06 | 14.00084 | 144.28820 | 16747 ft | 407 kts | 142° |
| 2026-04-16 17:07 | 13.97979 | 144.30759 | 16295 ft | 404 kts | 142° |
| 2026-04-16 17:07 | 13.95874 | 144.32697 | 15518 ft | 410 kts | 142° |
| 2026-04-16 17:07 | 13.93764 | 144.34638 | 14568 ft | 400 kts | 142° |
| 2026-04-16 17:07 | 13.91732 | 144.36512 | 13657 ft | 385 kts | 142° |
| 2026-04-16 17:08 | 13.89771 | 144.38321 | 12676 ft | 373 kts | 142° |
| 2026-04-16 17:08 | 13.87858 | 144.40082 | 11712 ft | 365 kts | 142° |
| 2026-04-16 17:08 | 13.86007 | 144.41787 | 11088 ft | 347 kts | 143° |
| 2026-04-16 17:08 | 13.84264 | 144.43395 | 10672 ft | 327 kts | 143° |
| 2026-04-16 17:09 | 13.82613 | 144.44916 | 10224 ft | 310 kts | 143° |
| 2026-04-16 17:09 | 13.81040 | 144.46363 | 10124 ft | 302 kts | 144° |
| 2026-04-16 17:09 | 13.79479 | 144.47795 | 9977 ft | 307 kts | 144° |
| 2026-04-16 17:09 | 13.77853 | 144.49285 | 9647 ft | 317 kts | 144° |
| 2026-04-16 17:10 | 13.76226 | 144.50784 | 9254 ft | 311 kts | 144° |
| 2026-04-16 17:10 | 13.74609 | 144.52273 | 8924 ft | 314 kts | 144° |
| 2026-04-16 17:10 | 13.72975 | 144.53774 | 8606 ft | 312 kts | 144° |
| 2026-04-16 17:10 | 13.71371 | 144.55251 | 8189 ft | 307 kts | 144° |
| 2026-04-16 17:11 | 13.69800 | 144.56694 | 7868 ft | 298 kts | 144° |
| 2026-04-16 17:11 | 13.68287 | 144.58082 | 7513 ft | 285 kts | 144° |
| 2026-04-16 17:11 | 13.66831 | 144.59411 | 7070 ft | 275 kts | 144° |
| 2026-04-16 17:11 | 13.65427 | 144.60694 | 6663 ft | 265 kts | 145° |
| 2026-04-16 17:12 | 13.64093 | 144.61917 | 6443 ft | 245 kts | 146° |
| 2026-04-16 17:12 | 13.62838 | 144.63066 | 6426 ft | 247 kts | 146° |
| 2026-04-16 17:12 | 13.61515 | 144.64267 | 6124 ft | 256 kts | 146° |
| 2026-04-16 17:12 | 13.60184 | 144.65456 | 5821 ft | 249 kts | 152° |
| 2026-04-16 17:13 | 13.58662 | 144.66065 | 5482 ft | 227 kts | 183° |
| 2026-04-16 17:13 | 13.57147 | 144.65915 | 5052 ft | 210 kts | 203° |
| 2026-04-16 17:13 | 13.55821 | 144.65472 | 4815 ft | 192 kts | 207° |
| 2026-04-16 17:13 | 13.54597 | 144.65018 | 4733 ft | 186 kts | 208° |
| 2026-04-16 17:14 | 13.53355 | 144.64548 | 4673 ft | 194 kts | 208° |
| 2026-04-16 17:14 | 13.52104 | 144.64082 | 4555 ft | 188 kts | 208° |
| 2026-04-16 17:14 | 13.50902 | 144.63639 | 4464 ft | 180 kts | 208° |
| 2026-04-16 17:14 | 13.49741 | 144.63211 | 4419 ft | 177 kts | 208° |
| 2026-04-16 17:15 | 13.48576 | 144.62783 | 4269 ft | 180 kts | 208° |
| 2026-04-16 17:15 | 13.47413 | 144.62359 | 4061 ft | 170 kts | 208° |
| 2026-04-16 17:15 | 13.46338 | 144.61969 | 3898 ft | 163 kts | 209° |
| 2026-04-16 17:15 | 13.45285 | 144.61585 | 3737 ft | 160 kts | 209° |
| 2026-04-16 17:16 | 13.44227 | 144.61197 | 3558 ft | 162 kts | 209° |
| 2026-04-16 17:16 | 13.43158 | 144.60804 | 3367 ft | 164 kts | 209° |
| 2026-04-16 17:16 | 13.41993 | 144.60697 | 3132 ft | 182 kts | 174° |
| 2026-04-16 17:16 | 13.40947 | 144.61493 | 2956 ft | 200 kts | 128° |
| 2026-04-16 17:17 | 13.40666 | 144.62908 | 2801 ft | 210 kts | 77° |
| 2026-04-16 17:17 | 13.41265 | 144.64250 | 2694 ft | 207 kts | 57° |
| 2026-04-16 17:17 | 13.41965 | 144.65558 | 2517 ft | 211 kts | 57° |
| 2026-04-16 17:17 | 13.42648 | 144.66872 | 2339 ft | 203 kts | 61° |
| 2026-04-16 17:18 | 13.43239 | 144.68140 | 2228 ft | 193 kts | 63° |
| 2026-04-16 17:18 | 13.43806 | 144.69388 | 2064 ft | 193 kts | 63° |
| 2026-04-16 17:18 | 13.44366 | 144.70619 | 1827 ft | 188 kts | 64° |
| 2026-04-16 17:18 | 13.44906 | 144.71810 | 1572 ft | 180 kts | 64° |
| 2026-04-16 17:19 | 13.45439 | 144.72977 | 1371 ft | 181 kts | 64° |
| 2026-04-16 17:19 | 13.45960 | 144.74110 | 1067 ft | 175 kts | 64° |
| 2026-04-16 17:19 | 13.46491 | 144.75312 | 1055 ft | 190 kts | 61° |
| 2026-04-16 17:19 | 13.47061 | 144.76534 | 743 ft | 182 kts | 68° |
| 2026-04-16 17:20 | 13.47554 | 144.77687 | 424 ft | 170 kts | 62° |
| 2026-04-16 17:20 | 13.48031 | 144.78732 | 263 ft | 151 kts | 60° |
| 2026-04-16 17:20 | 13.48422 | 144.79557 | 275 ft | 102 kts | 65° |
| 2026-04-16 17:20 | 13.48637 | 144.80025 | 297 ft | 52 kts | 64° |
| 2026-04-16 17:21 | 13.48755 | 144.80224 | 300 ft | 25 kts | 46° |
| 2026-04-16 17:21 | 13.48890 | 144.80342 | 303 ft | 23 kts | 35° |
| 2026-04-16 17:21 | 13.49024 | 144.80469 | 303 ft | 30 kts | 68° |
| 2026-04-16 17:21 | 13.49092 | 144.80588 | 307 ft | 12 kts | 59° |
| 2026-04-16 17:22 | 13.49136 | 144.80609 | 305 ft | 10 kts | 349° |
| 2026-04-16 17:22 | 13.49174 | 144.80592 | 304 ft | 6 kts | 331° |
| 2026-04-16 17:22 | 13.49183 | 144.80586 | 301 ft | 0 kts | 330° |